Time;durP1;ratioP1;P1;durP2;ratioP2;P2;SDS_P1;SDS_P2;PMS_P1;PMS_P2;Temp;Humidity;BMP_temperature;BMP_pressure;BME280_temperature;BME280_humidity;BME280_pressure;Samples;Min_cycle;Max_cycle;Signal;HPM_P1;HPM_P2
2022/05/22 00:02:15;;;;;;;12.73;7.45;;;10.90;87.90;;;;;;5031175;28;20446;-74
2022/05/22 00:04:41;;;;;;;13.45;6.35;;;10.90;87.70;;;;;;5031236;28;20046;-77
2022/05/22 00:07:07;;;;;;;9.75;6.30;;;10.70;87.50;;;;;;5014904;28;20150;-74
2022/05/22 00:09:35;;;;;;;10.05;6.78;;;10.70;87.50;;;;;;5014819;28;20111;-78
2022/05/22 00:12:01;;;;;;;13.52;7.38;;;10.60;87.70;;;;;;5031149;28;20049;-78
2022/05/22 00:14:27;;;;;;;14.75;7.25;;;10.60;87.70;;;;;;5017446;28;20044;-75
2022/05/22 00:16:53;;;;;;;10.73;7.25;;;10.60;87.70;;;;;;5035201;28;20042;-75
2022/05/22 00:19:24;;;;;;;15.73;7.18;;;10.60;87.60;;;;;;5034866;28;20129;-76
2022/05/22 00:21:50;;;;;;;11.30;6.68;;;10.60;87.40;;;;;;5034773;28;20038;-77
2022/05/22 00:24:19;;;;;;;11.10;6.60;;;10.60;87.30;;;;;;5034727;28;20117;-78
2022/05/22 00:26:45;;;;;;;13.68;6.38;;;10.60;87.40;;;;;;5034732;28;20041;-75
2022/05/22 00:29:11;;;;;;;11.98;6.50;;;10.60;87.40;;;;;;5034589;28;20057;-75
2022/05/22 00:31:37;;;;;;;19.48;7.55;;;10.60;87.30;;;;;;5034588;28;20037;-79
2022/05/22 00:34:03;;;;;;;21.73;8.45;;;10.70;87.80;;;;;;5034669;28;20053;-78
2022/05/22 00:36:29;;;;;;;17.58;8.80;;;10.60;88.50;;;;;;5034848;28;20095;-77
2022/05/22 00:38:54;;;;;;;14.15;6.35;;;10.70;88.80;;;;;;5018111;28;20079;-78
2022/05/22 00:41:21;;;;;;;9.25;3.75;;;10.70;88.20;;;;;;5018079;28;20040;-75
2022/05/22 00:43:50;;;;;;;5.03;3.05;;;10.50;87.70;;;;;;5017831;28;20046;-74
2022/05/22 00:46:17;;;;;;;6.22;3.50;;;10.40;87.60;;;;;;5034402;28;20497;-76
2022/05/22 00:48:49;;;;;;;6.35;4.18;;;10.40;87.60;;;;;;5017979;28;20033;-76
2022/05/22 00:51:38;;;;;;;13.35;6.20;;;10.40;87.90;;;;;;5034608;28;20150;-76
2022/05/22 00:54:10;;;;;;;11.70;5.38;;;10.40;88.20;;;;;;5013593;28;20421;-74
2022/05/22 00:56:43;;;;;;;9.50;5.60;;;10.40;88.40;;;;;;4998139;28;20433;-77
2022/05/22 00:59:14;;;;;;;10.02;6.25;;;10.40;88.20;;;;;;5014703;28;20107;-76
2022/05/22 01:01:41;;;;;;;11.00;6.28;;;10.40;88.00;;;;;;5014484;28;20042;-79
2022/05/22 01:04:13;;;;;;;11.48;6.57;;;10.40;87.90;;;;;;4997912;28;20045;-79
2022/05/22 01:06:39;;;;;;;15.00;6.57;;;10.30;87.90;;;;;;5014283;28;20049;-78
2022/05/22 01:09:04;;;;;;;11.82;6.45;;;10.40;87.80;;;;;;4981673;28;20037;-75
2022/05/22 01:11:34;;;;;;;10.77;6.45;;;10.40;87.80;;;;;;5014055;28;20045;-77
2022/05/22 01:14:10;;;;;;;15.98;7.85;;;10.30;87.70;;;;;;5014427;28;20172;-75
2022/05/22 01:16:36;;;;;;;12.38;8.45;;;10.30;87.60;;;;;;4997774;28;20038;-77
2022/05/22 01:19:13;;;;;;;14.50;7.60;;;10.40;87.80;;;;;;5014059;28;20449;-75
2022/05/22 01:21:38;;;;;;;17.08;8.00;;;10.40;87.80;;;;;;5014323;28;20124;-75
2022/05/22 01:24:05;;;;;;;13.48;7.70;;;10.30;87.90;;;;;;4997044;28;20129;-76
2022/05/22 01:26:31;;;;;;;14.13;7.95;;;10.30;88.00;;;;;;4997897;28;20485;-77
2022/05/22 01:28:56;;;;;;;13.00;7.15;;;10.30;87.90;;;;;;4981658;28;20042;-76
2022/05/22 01:31:22;;;;;;;13.65;7.57;;;10.30;87.90;;;;;;4997783;28;20080;-78
2022/05/22 01:33:49;;;;;;;13.77;7.93;;;10.30;87.80;;;;;;5013580;28;20120;-77
2022/05/22 01:36:16;;;;;;;16.55;8.55;;;10.30;87.90;;;;;;5014029;28;20401;-77
2022/05/22 01:38:43;;;;;;;14.40;8.25;;;10.30;88.20;;;;;;5014121;28;20041;-76
2022/05/22 01:41:09;;;;;;;16.73;9.55;;;10.40;88.80;;;;;;4997365;28;20048;-76
2022/05/22 01:43:35;;;;;;;16.70;7.53;;;10.40;88.50;;;;;;5013569;28;20038;-76
2022/05/22 01:46:02;;;;;;;12.05;7.10;;;10.40;88.80;;;;;;4997216;28;20243;-78
2022/05/22 01:48:28;;;;;;;9.70;6.82;;;10.40;89.00;;;;;;5013499;28;20050;-80
2022/05/22 01:50:55;;;;;;;10.88;7.07;;;10.40;89.20;;;;;;5013453;28;20099;-79
2022/05/22 01:53:21;;;;;;;7.75;5.30;;;10.40;89.40;;;;;;5030274;28;20103;-75
2022/05/22 01:55:49;;;;;;;7.43;4.15;;;10.40;89.20;;;;;;5019946;28;20048;-77
2022/05/22 01:58:15;;;;;;;5.43;4.00;;;10.30;88.80;;;;;;5019893;28;20045;-78
2022/05/22 02:00:41;;;;;;;7.35;4.35;;;10.20;88.60;;;;;;5036318;28;20044;-80
2022/05/22 02:03:07;;;;;;;5.07;3.20;;;10.20;88.70;;;;;;5019643;28;20037;-77
2022/05/22 02:05:36;;;;;;;4.22;2.80;;;10.10;88.50;;;;;;5019799;28;20472;-76
2022/05/22 02:08:24;;;;;;;5.60;2.78;;;10.00;88.30;;;;;;5036683;28;20036;-76
2022/05/22 02:10:53;;;;;;;4.53;2.13;;;9.90;88.10;;;;;;5036155;28;20033;-77
2022/05/22 02:13:21;;;;;;;3.67;3.38;;;9.80;88.20;;;;;;5019488;28;20040;-75
2022/05/22 02:15:49;;;;;;;3.75;2.33;;;9.80;88.50;;;;;;5036009;28;20049;-78
2022/05/22 02:18:15;;;;;;;6.10;2.50;;;9.80;88.40;;;;;;5019581;28;20051;-76
2022/05/22 02:20:41;;;;;;;2.70;1.73;;;9.60;88.30;;;;;;5036119;28;20063;-76
2022/05/22 02:23:06;;;;;;;4.00;2.10;;;9.60;88.30;;;;;;5035833;28;20037;-78
2022/05/22 02:25:35;;;;;;;3.30;2.33;;;9.50;88.30;;;;;;5035853;28;20073;-76
2022/05/22 02:28:03;;;;;;;5.90;2.80;;;9.50;88.40;;;;;;5035797;28;20044;-78
2022/05/22 02:30:33;;;;;;;3.90;3.30;;;9.60;88.60;;;;;;5035700;28;20036;-79
2022/05/22 02:32:59;;;;;;;4.90;3.17;;;9.60;88.90;;;;;;5035650;28;20127;-76
2022/05/22 02:35:25;;;;;;;2.63;2.20;;;9.60;89.00;;;;;;5035010;28;20079;-79
2022/05/22 02:37:53;;;;;;;3.33;2.35;;;9.60;88.70;;;;;;5035648;28;20045;-78
2022/05/22 02:40:22;;;;;;;2.60;2.40;;;9.50;88.40;;;;;;5035570;28;20120;-79
2022/05/22 02:42:50;;;;;;;21.08;3.97;;;9.50;88.40;;;;;;5035362;28;20049;-78
2022/05/22 02:45:19;;;;;;;6.50;3.67;;;9.40;88.50;;;;;;5019094;28;20037;-80
2022/05/22 02:47:44;;;;;;;8.88;3.80;;;9.40;89.10;;;;;;5035841;28;20044;-78
2022/05/22 02:50:12;;;;;;;21.42;4.45;;;9.40;89.40;;;;;;5035717;28;20389;-76
2022/05/22 02:52:38;;;;;;;42.55;5.53;;;9.40;89.40;;;;;;5035120;28;20068;-80
2022/05/22 02:55:05;;;;;;;11.35;4.03;;;9.30;89.70;;;;;;5035282;28;20049;-78
2022/05/22 02:57:35;;;;;;;4.05;3.30;;;9.30;89.60;;;;;;5035298;28;20041;-77
2022/05/22 03:00:03;;;;;;;7.57;3.80;;;9.30;89.50;;;;;;5035564;28;20526;-77
2022/05/22 03:02:28;;;;;;;15.23;4.25;;;9.20;89.40;;;;;;5035111;28;20044;-77
2022/05/22 03:04:54;;;;;;;8.38;4.80;;;9.20;89.30;;;;;;5018798;28;20033;-78
2022/05/22 03:07:20;;;;;;;46.90;4.85;;;9.20;89.70;;;;;;5035263;28;20047;-75
2022/05/22 03:09:47;;;;;;;61.00;6.60;;;9.20;90.10;;;;;;5018982;28;20033;-78
2022/05/22 03:12:23;;;;;;;43.38;4.65;;;9.20;90.00;;;;;;5035324;28;20466;-78
2022/05/22 03:14:55;;;;;;;108.28;9.10;;;9.20;90.10;;;;;;5019024;28;20032;-77
2022/05/22 03:17:21;;;;;;;48.33;7.43;;;9.20;90.40;;;;;;5018861;28;20028;-75
2022/05/22 03:19:47;;;;;;;18.70;4.70;;;9.20;90.50;;;;;;5034893;28;20124;-77
2022/05/22 03:22:13;;;;;;;142.77;10.88;;;9.20;90.50;;;;;;5001897;28;20139;-77
2022/05/22 03:24:39;;;;;;;24.23;5.65;;;9.30;90.70;;;;;;5034764;28;20044;-75
2022/05/22 03:27:08;;;;;;;18.88;5.47;;;9.30;90.70;;;;;;5034769;28;20053;-76
2022/05/22 03:29:34;;;;;;;7.70;4.20;;;9.30;90.70;;;;;;5034752;28;20341;-77
2022/05/22 03:31:59;;;;;;;4.82;3.45;;;9.30;90.70;;;;;;5034355;28;20037;-79
2022/05/22 03:34:25;;;;;;;38.35;6.40;;;9.30;90.80;;;;;;5018566;28;20366;-77
2022/05/22 03:36:51;;;;;;;17.88;5.13;;;9.30;90.80;;;;;;5018360;28;20463;-79
2022/05/22 03:39:17;;;;;;;33.17;6.03;;;9.30;91.00;;;;;;5018621;28;20064;-77
2022/05/22 03:41:43;;;;;;;76.18;8.98;;;9.30;91.00;;;;;;5034695;28;20033;-78
2022/05/22 03:44:09;;;;;;;55.70;8.45;;;9.30;91.10;;;;;;5034759;28;20452;-78
2022/05/22 03:46:35;;;;;;;70.82;10.05;;;9.30;91.10;;;;;;5034761;28;20029;-77
2022/05/22 03:49:00;;;;;;;76.22;10.13;;;9.30;91.20;;;;;;5038684;28;20178;-78
2022/05/22 03:51:27;;;;;;;42.38;7.55;;;9.30;91.20;;;;;;5038931;28;20044;-77
2022/05/22 03:53:53;;;;;;;86.40;11.32;;;9.30;91.20;;;;;;5038439;28;20135;-76
2022/05/22 03:56:20;;;;;;;120.28;12.77;;;9.30;91.30;;;;;;5038708;28;20127;-75
2022/05/22 03:58:46;;;;;;;61.97;9.35;;;9.30;91.40;;;;;;5038624;28;20127;-79
2022/05/22 04:01:13;;;;;;;25.65;6.05;;;9.40;91.40;;;;;;5038640;28;20045;-78
2022/05/22 04:03:38;;;;;;;37.00;8.25;;;9.50;91.10;;;;;;5038474;28;20516;-77
2022/05/22 04:06:06;;;;;;;63.92;11.82;;;9.60;91.10;;;;;;5038460;28;20037;-77
2022/05/22 04:08:33;;;;;;;41.90;10.40;;;9.60;91.20;;;;;;5038473;28;20041;-76
2022/05/22 04:11:06;;;;;;;22.17;8.02;;;9.70;91.40;;;;;;5038634;28;20437;-76
2022/05/22 04:13:32;;;;;;;26.92;9.20;;;9.70;91.00;;;;;;5038385;28;20045;-81
2022/05/22 04:15:58;;;;;;;13.07;7.70;;;9.70;91.20;;;;;;5038347;28;20037;-78
2022/05/22 04:18:23;;;;;;;8.23;7.25;;;9.70;91.50;;;;;;5038143;28;20516;-79
2022/05/22 04:20:49;;;;;;;14.20;7.93;;;9.70;91.70;;;;;;5038526;28;20067;-75
2022/05/22 04:25:59;;;;;;;11.27;8.68;;;9.60;91.70;;;;;;5038141;28;20048;-81
2022/05/22 04:28:27;;;;;;;9.27;8.27;;;9.60;92.10;;;;;;5021598;28;20037;-78
2022/05/22 04:30:53;;;;;;;9.82;8.00;;;9.60;91.80;;;;;;5038221;28;20100;-77
2022/05/22 04:33:19;;;;;;;10.57;7.65;;;9.60;92.10;;;;;;5038186;28;20459;-79
2022/05/22 04:35:45;;;;;;;12.98;9.18;;;9.60;92.00;;;;;;5038236;28;20047;-78
2022/05/22 04:38:11;;;;;;;10.73;7.03;;;9.60;92.20;;;;;;5037838;28;20548;-77
2022/05/22 04:40:41;;;;;;;12.95;8.20;;;9.60;91.80;;;;;;5037849;28;20041;-77
2022/05/22 04:43:09;;;;;;;12.23;8.20;;;9.60;91.50;;;;;;5037670;28;20090;-78
2022/05/22 04:45:38;;;;;;;13.00;8.32;;;9.70;91.60;;;;;;5037773;28;20076;-76
2022/05/22 04:48:05;;;;;;;10.85;9.00;;;9.70;91.20;;;;;;5037741;28;20056;-79
2022/05/22 04:50:32;;;;;;;13.57;8.32;;;9.80;92.00;;;;;;5037624;28;20037;-74
2022/05/22 04:52:57;;;;;;;10.48;8.32;;;9.80;91.60;;;;;;5037631;28;20409;-77
2022/05/22 04:55:24;;;;;;;8.60;6.18;;;9.80;92.10;;;;;;5037585;28;20049;-80
2022/05/22 04:57:50;;;;;;;9.73;7.28;;;9.80;92.40;;;;;;5037612;28;20045;-76
2022/05/22 05:00:15;;;;;;;9.02;6.38;;;9.80;92.20;;;;;;5036551;28;20192;-76
2022/05/22 05:02:41;;;;;;;10.07;8.38;;;9.90;92.10;;;;;;5037279;28;20128;-77
2022/05/22 05:05:10;;;;;;;13.52;9.00;;;9.90;91.80;;;;;;5037613;28;20048;-78
2022/05/22 05:07:42;;;;;;;10.55;7.25;;;10.00;92.50;;;;;;5037403;28;20043;-78
2022/05/22 05:10:10;;;;;;;10.30;8.30;;;10.00;92.30;;;;;;5037324;28;20063;-77
2022/05/22 05:12:38;;;;;;;11.05;8.57;;;10.10;92.50;;;;;;5037428;28;20091;-76
2022/05/22 05:15:05;;;;;;;11.63;8.45;;;10.10;93.10;;;;;;5021040;28;20084;-78
2022/05/22 05:17:31;;;;;;;12.77;9.52;;;10.10;92.70;;;;;;5020809;28;20053;-75
2022/05/22 05:19:56;;;;;;;12.68;7.40;;;10.20;92.70;;;;;;5037182;28;20063;-78
2022/05/22 05:22:22;;;;;;;16.98;9.55;;;10.30;92.60;;;;;;5020708;28;20041;-77
2022/05/22 05:24:48;;;;;;;11.38;8.55;;;10.40;92.90;;;;;;5037315;28;20433;-79
2022/05/22 05:27:13;;;;;;;12.57;8.70;;;10.40;92.40;;;;;;5020459;28;20075;-78
2022/05/22 05:29:39;;;;;;;13.32;9.13;;;10.50;92.20;;;;;;5036983;28;20041;-78
2022/05/22 05:32:05;;;;;;;15.60;9.63;;;10.60;92.20;;;;;;5036920;28;20044;-77
2022/05/22 05:34:31;;;;;;;13.15;9.20;;;10.70;92.10;;;;;;5036898;28;20041;-76
2022/05/22 05:36:56;;;;;;;13.57;9.57;;;10.80;92.80;;;;;;5036831;28;20033;-78
2022/05/22 05:39:22;;;;;;;13.40;9.73;;;10.90;91.90;;;;;;5020237;28;20090;-76
2022/05/22 05:41:48;;;;;;;12.32;8.00;;;11.00;91.80;;;;;;5036638;28;20041;-76
2022/05/22 05:44:14;;;;;;;16.90;10.18;;;11.10;91.60;;;;;;5036839;28;20040;-77
2022/05/22 05:46:40;;;;;;;20.17;9.55;;;11.20;92.20;;;;;;5036763;28;20119;-78
2022/05/22 05:49:07;;;;;;;16.25;10.32;;;11.30;92.00;;;;;;5036658;28;20134;-75
2022/05/22 05:51:35;;;;;;;13.05;9.57;;;11.50;92.40;;;;;;5036596;28;20045;-73
2022/05/22 05:54:02;;;;;;;18.08;9.68;;;11.60;92.30;;;;;;5003684;28;20057;-77
2022/05/22 05:56:27;;;;;;;20.33;9.45;;;11.70;92.00;;;;;;5020481;28;20067;-77
2022/05/22 05:58:54;;;;;;;19.98;9.45;;;11.80;92.20;;;;;;5019891;28;20485;-77
2022/05/22 06:01:22;;;;;;;16.00;8.02;;;12.00;91.70;;;;;;5020074;28;20079;-76
2022/05/22 06:03:47;;;;;;;17.80;8.48;;;12.10;92.20;;;;;;5036175;28;20400;-76
2022/05/22 06:06:15;;;;;;;14.63;7.50;;;12.20;92.10;;;;;;5036277;28;20043;-75
2022/05/22 06:08:41;;;;;;;19.08;9.38;;;12.20;91.70;;;;;;5036538;28;20055;-76
2022/05/22 06:11:08;;;;;;;21.17;9.80;;;12.40;92.80;;;;;;5036283;28;20041;-75
2022/05/22 06:13:35;;;;;;;16.90;8.50;;;12.50;92.40;;;;;;5036400;28;20079;-74
2022/05/22 06:16:03;;;;;;;13.25;7.28;;;12.60;92.20;;;;;;5004195;28;20515;-74
2022/05/22 06:18:29;;;;;;;13.02;7.90;;;12.60;91.80;;;;;;5036597;28;20432;-75
2022/05/22 06:20:55;;;;;;;17.58;7.63;;;12.70;91.60;;;;;;5036264;28;20065;-77
2022/05/22 06:23:20;;;;;;;15.43;6.82;;;12.80;91.40;;;;;;5019950;28;20052;-74
2022/05/22 06:25:46;;;;;;;13.85;6.45;;;12.90;91.30;;;;;;5036472;28;20033;-78
2022/05/22 06:28:13;;;;;;;14.52;6.78;;;13.00;91.00;;;;;;5019990;28;20124;-76
2022/05/22 06:30:38;;;;;;;9.32;6.13;;;13.10;90.80;;;;;;5036629;28;20547;-77
2022/05/22 06:33:10;;;;;;;9.98;5.85;;;13.20;90.50;;;;;;5036186;28;20084;-79
2022/05/22 06:35:41;;;;;;;9.02;5.72;;;13.20;90.30;;;;;;5019792;28;20427;-76
2022/05/22 06:38:08;;;;;;;18.42;7.30;;;13.30;89.70;;;;;;5035844;28;20056;-76
2022/05/22 06:40:36;;;;;;;11.02;5.25;;;13.50;89.70;;;;;;5019426;28;20138;-77
2022/05/22 06:43:02;;;;;;;11.43;5.68;;;13.50;89.20;;;;;;5036082;28;20124;-76
2022/05/22 06:45:28;;;;;;;11.93;5.15;;;13.70;89.00;;;;;;5019802;28;20127;-77
2022/05/22 06:47:54;;;;;;;10.88;5.03;;;13.70;87.70;;;;;;5036756;28;20040;-79
2022/05/22 06:50:24;;;;;;;8.65;4.68;;;13.90;87.00;;;;;;5036077;28;20112;-78
2022/05/22 06:52:49;;;;;;;9.20;4.65;;;14.00;87.00;;;;;;5035639;28;20171;-77
2022/05/22 06:55:16;;;;;;;8.40;4.00;;;14.00;86.20;;;;;;5036185;28;20080;-80
2022/05/22 06:57:42;;;;;;;9.57;3.50;;;14.10;83.60;;;;;;5036143;28;20209;-78
2022/05/22 07:00:14;;;;;;;9.07;4.05;;;14.30;85.50;;;;;;5019485;28;20048;-76
2022/05/22 07:02:41;;;;;;;10.52;4.45;;;14.40;84.80;;;;;;5035546;28;20194;-78
2022/05/22 07:05:08;;;;;;;10.38;4.13;;;14.50;83.80;;;;;;5035469;28;20069;-77
2022/05/22 07:07:34;;;;;;;11.18;5.70;;;14.50;84.00;;;;;;5035442;28;20048;-78
2022/05/22 07:10:00;;;;;;;9.43;4.22;;;14.60;81.90;;;;;;5035690;28;20036;-77
2022/05/22 07:12:25;;;;;;;9.43;6.00;;;14.60;80.30;;;;;;5035441;28;20072;-75
2022/05/22 07:14:56;;;;;;;13.18;4.15;;;14.70;81.30;;;;;;5033952;28;20127;-77
2022/05/22 07:17:24;;;;;;;11.07;4.05;;;14.80;82.60;;;;;;5034411;28;20292;-79
2022/05/22 07:19:55;;;;;;;12.02;3.83;;;14.80;82.40;;;;;;5035205;28;20044;-77
2022/05/22 07:22:21;;;;;;;9.32;3.92;;;15.00;81.60;;;;;;5034896;28;20049;-78
2022/05/22 07:24:47;;;;;;;7.88;3.92;;;15.00;82.00;;;;;;5018617;28;20048;-77
2022/05/22 07:27:14;;;;;;;9.80;3.83;;;15.20;80.90;;;;;;5035241;28;20397;-78
2022/05/22 07:29:40;;;;;;;10.20;3.97;;;15.30;79.70;;;;;;5035270;28;20041;-77
2022/05/22 07:32:06;;;;;;;8.02;3.33;;;15.40;79.30;;;;;;5035178;28;20032;-78
2022/05/22 07:34:33;;;;;;;10.85;3.80;;;15.40;78.80;;;;;;5018699;28;20052;-79
2022/05/22 07:37:02;;;;;;;9.23;3.70;;;15.50;77.50;;;;;;5035289;28;20396;-79
2022/05/22 07:39:28;;;;;;;7.63;3.28;;;15.60;78.90;;;;;;5034916;28;20044;-78
2022/05/22 07:41:57;;;;;;;7.32;2.90;;;15.70;77.50;;;;;;5034947;28;20116;-78
2022/05/22 07:44:23;;;;;;;9.70;3.28;;;15.70;75.80;;;;;;5035247;28;20044;-76
2022/05/22 07:46:49;;;;;;;8.35;3.33;;;15.80;76.50;;;;;;5018844;28;20029;-77
2022/05/22 07:52:05;;;;;;;13.73;4.38;;;16.00;76.20;;;;;;5035769;28;20044;-79
2022/05/22 07:54:36;;;;;;;7.03;3.20;;;16.00;75.80;;;;;;5019096;28;20045;-77
2022/05/22 07:57:03;;;;;;;6.60;3.00;;;16.00;75.50;;;;;;5035552;28;20047;-79
2022/05/22 07:59:29;;;;;;;32.28;6.85;;;16.20;74.60;;;;;;5019055;28;20472;-79
2022/05/22 08:01:55;;;;;;;11.30;2.88;;;16.30;74.50;;;;;;5019038;28;20045;-77
2022/05/22 08:04:21;;;;;;;12.30;4.28;;;16.30;74.70;;;;;;5035033;28;20049;-76
2022/05/22 08:06:46;;;;;;;9.73;3.40;;;16.40;73.30;;;;;;5035328;28;20037;-77
2022/05/22 08:09:12;;;;;;;8.75;3.50;;;16.50;72.80;;;;;;5018559;28;20048;-78
2022/05/22 08:11:38;;;;;;;13.65;5.03;;;16.50;72.60;;;;;;5035086;28;20047;-75
2022/05/22 08:14:03;;;;;;;8.50;3.45;;;16.60;73.00;;;;;;5034866;28;20045;-75
2022/05/22 08:16:30;;;;;;;9.93;3.15;;;16.70;71.80;;;;;;5034630;28;20064;-75
2022/05/22 08:18:55;;;;;;;8.18;3.90;;;16.70;72.60;;;;;;5002347;28;20447;-77
2022/05/22 08:21:22;;;;;;;9.93;3.65;;;16.80;72.20;;;;;;5034752;28;20037;-76
2022/05/22 08:23:48;;;;;;;7.32;3.20;;;17.00;72.50;;;;;;5002465;28;20052;-79
2022/05/22 08:26:14;;;;;;;7.68;3.10;;;17.00;72.90;;;;;;5035137;28;20032;-76
2022/05/22 08:28:40;;;;;;;10.88;3.88;;;17.00;71.80;;;;;;5018335;28;20493;-73
2022/05/22 08:31:06;;;;;;;9.55;2.92;;;17.10;72.60;;;;;;5018610;28;20048;-76
2022/05/22 08:33:32;;;;;;;11.10;3.88;;;17.20;72.90;;;;;;5018746;28;20087;-77
2022/05/22 08:35:57;;;;;;;13.27;3.90;;;17.20;71.80;;;;;;5022141;28;20106;-77
2022/05/22 08:38:23;;;;;;;10.07;4.40;;;17.30;72.50;;;;;;5038382;28;20385;-78
2022/05/22 08:41:09;;;;;;;7.72;3.72;;;17.30;71.90;;;;;;5022256;28;20059;-77
2022/05/22 08:43:59;;;;;;;8.55;4.18;;;17.20;71.70;;;;;;5021919;28;20077;-79
2022/05/22 08:46:45;;;;;;;9.25;3.80;;;17.40;70.30;;;;;;5038412;28;20051;-77
2022/05/22 08:49:21;;;;;;;10.43;4.63;;;17.50;70.70;;;;;;5038198;28;20083;-77
2022/05/22 08:51:51;;;;;;;12.25;3.90;;;17.60;71.20;;;;;;5038349;28;20392;-76
2022/05/22 08:54:28;;;;;;;9.35;3.78;;;17.80;71.10;;;;;;5021575;28;20480;-76
2022/05/22 08:59:45;;;;;;;8.43;3.42;;;18.00;69.50;;;;;;5038017;28;20582;-76
2022/05/22 09:02:20;;;;;;;12.68;4.93;;;18.00;69.60;;;;;;5037927;28;20060;-81
2022/05/22 09:05:09;;;;;;;7.90;3.33;;;18.10;69.30;;;;;;5021652;28;20048;-76
2022/05/22 09:07:51;;;;;;;6.45;3.42;;;18.20;69.10;;;;;;5038053;28;20051;-75
2022/05/22 09:10:26;;;;;;;9.38;3.72;;;18.10;67.80;;;;;;5021358;28;20104;-75
2022/05/22 09:12:58;;;;;;;8.05;3.83;;;18.00;68.30;;;;;;5021182;28;20559;-80
2022/05/22 09:15:40;;;;;;;14.25;5.57;;;18.00;69.00;;;;;;5037600;28;20052;-79
2022/05/22 09:18:30;;;;;;;15.32;6.15;;;18.10;68.10;;;;;;5037839;28;20106;-77
2022/05/22 09:20:58;;;;;;;10.63;5.35;;;18.40;68.60;;;;;;5038870;28;20072;-77
2022/05/22 09:23:26;;;;;;;15.43;6.10;;;18.40;69.20;;;;;;5036352;28;20103;-79
2022/05/22 09:26:01;;;;;;;11.15;5.38;;;18.40;69.00;;;;;;5035885;28;20059;-77
2022/05/22 09:28:43;;;;;;;12.05;5.20;;;18.50;69.10;;;;;;5037018;28;20040;-76
2022/05/22 09:31:34;;;;;;;10.95;4.68;;;18.60;68.70;;;;;;5020438;28;20485;-75
2022/05/22 09:34:12;;;;;;;12.40;5.00;;;18.50;67.70;;;;;;5020255;28;20130;-76
2022/05/22 09:36:41;;;;;;;11.65;5.63;;;18.60;68.30;;;;;;5036942;28;20489;-75
2022/05/22 09:39:15;;;;;;;8.07;3.45;;;18.70;68.10;;;;;;5020322;28;20048;-77
2022/05/22 09:41:57;;;;;;;11.13;4.70;;;18.90;66.90;;;;;;5020146;28;20049;-76
2022/05/22 09:44:54;;;;;;;11.65;4.15;;;19.10;65.80;;;;;;5036623;28;20049;-75
2022/05/22 09:47:42;;;;;;;13.10;3.85;;;18.90;64.70;;;;;;5019758;28;20516;-79
2022/05/22 09:50:27;;;;;;;12.68;3.67;;;18.90;63.60;;;;;;5036866;28;20036;-76
2022/05/22 09:53:03;;;;;;;10.10;3.50;;;19.00;65.40;;;;;;5036377;28;20096;-77
2022/05/22 09:55:42;;;;;;;10.05;3.40;;;18.90;63.00;;;;;;5036990;28;20056;-76
2022/05/22 09:58:26;;;;;;;11.18;4.13;;;19.00;61.70;;;;;;5037019;28;20041;-73
2022/05/22 10:01:07;;;;;;;10.30;3.40;;;19.20;62.80;;;;;;5036920;28;20483;-76
2022/05/22 10:03:41;;;;;;;8.48;3.28;;;19.10;62.00;;;;;;5020307;28;20047;-74
2022/05/22 10:06:27;;;;;;;8.07;2.40;;;19.40;62.90;;;;;;5036693;28;20124;-75
2022/05/22 10:09:07;;;;;;;10.38;3.10;;;19.30;60.70;;;;;;5036651;28;20064;-76
2022/05/22 10:11:37;;;;;;;7.07;2.58;;;19.30;61.20;;;;;;5036817;28;20415;-73
2022/05/22 10:14:37;;;;;;;12.43;3.40;;;19.40;58.10;;;;;;5036519;28;20052;-74
2022/05/22 10:17:10;;;;;;;8.77;3.33;;;19.50;59.50;;;;;;5036548;28;20052;-79
2022/05/22 10:19:36;;;;;;;7.82;2.17;;;19.70;59.90;;;;;;5036542;28;20052;-76
2022/05/22 10:22:27;;;;;;;8.07;2.20;;;19.80;57.50;;;;;;5020113;28;20041;-78
2022/05/22 10:24:58;;;;;;;5.40;1.77;;;19.80;57.90;;;;;;5036604;28;20483;-76
2022/05/22 10:27:33;;;;;;;6.57;1.95;;;19.90;58.00;;;;;;5036156;28;20037;-75
2022/05/22 10:30:06;;;;;;;7.05;1.77;;;20.00;57.40;;;;;;5019806;28;20040;-75
2022/05/22 10:32:34;;;;;;;5.97;1.95;;;20.00;57.10;;;;;;5019739;28;20087;-75
2022/05/22 10:35:09;;;;;;;9.00;2.30;;;20.10;56.20;;;;;;5036428;28;20128;-76
2022/05/22 10:37:45;;;;;;;6.82;2.30;;;20.10;53.00;;;;;;5036161;28;20053;-75
2022/05/22 10:40:21;;;;;;;5.07;1.63;;;20.00;54.10;;;;;;5036200;28;20051;-72
2022/05/22 10:42:52;;;;;;;5.05;1.52;;;20.10;53.00;;;;;;5019516;28;20043;-78
2022/05/22 10:45:34;;;;;;;6.47;2.10;;;20.30;53.40;;;;;;5036170;28;20087;-74
2022/05/22 10:48:22;;;;;;;3.58;1.83;;;20.50;52.40;;;;;;5035820;28;20037;-75
2022/05/22 10:50:56;;;;;;;8.20;2.05;;;20.40;49.10;;;;;;5019555;28;20436;-77
2022/05/22 10:53:45;;;;;;;4.55;1.50;;;20.70;51.60;;;;;;5032124;28;20100;-75
2022/05/22 10:56:13;;;;;;;5.10;1.63;;;20.90;51.70;;;;;;5027063;28;20413;-75
2022/05/22 10:58:51;;;;;;;4.80;1.73;;;21.10;51.00;;;;;;5032041;28;20045;-76
2022/05/22 11:01:31;;;;;;;7.18;1.67;;;21.30;50.50;;;;;;5032827;28;20118;-74
2022/05/22 11:04:12;;;;;;;7.50;1.92;;;21.10;49.20;;;;;;5032455;28;20389;-77
2022/05/22 11:06:58;;;;;;;6.38;2.13;;;21.20;48.20;;;;;;5032345;28;20049;-76
2022/05/22 11:09:27;;;;;;;6.20;1.80;;;21.20;50.30;;;;;;5032517;28;20447;-78
2022/05/22 11:12:07;;;;;;;4.22;1.45;;;21.40;50.20;;;;;;5031899;28;20456;-78
2022/05/22 11:14:35;;;;;;;5.50;1.45;;;21.40;48.10;;;;;;5015514;28;20092;-79
2022/05/22 11:17:07;;;;;;;5.72;1.52;;;21.50;47.80;;;;;;5015733;28;20052;-76
2022/05/22 11:19:40;;;;;;;7.65;1.75;;;21.50;45.80;;;;;;5015325;28;20041;-75
2022/05/22 11:22:05;;;;;;;4.68;1.98;;;21.40;47.30;;;;;;5031838;28;20041;-78
2022/05/22 11:24:31;;;;;;;4.22;1.42;;;21.40;47.40;;;;;;5031719;28;20041;-76
2022/05/22 11:27:28;;;;;;;6.95;2.08;;;21.50;49.00;;;;;;5031981;28;20494;-76
2022/05/22 11:30:23;;;;;;;4.90;2.10;;;21.70;47.90;;;;;;5015392;28;20041;-76
2022/05/22 11:33:10;;;;;;;4.50;2.00;;;21.70;46.90;;;;;;5021058;28;20053;-78
2022/05/22 11:35:53;;;;;;;5.22;1.67;;;21.90;47.90;;;;;;5031732;28;20053;-78
2022/05/22 11:38:40;;;;;;;6.80;2.15;;;21.90;45.80;;;;;;5031950;28;20076;-74
2022/05/22 11:41:09;;;;;;;4.47;1.60;;;22.00;46.90;;;;;;5031569;28;20041;-75
2022/05/22 11:44:12;;;;;;;5.03;1.80;;;22.10;46.60;;;;;;5031484;28;20041;-73
2022/05/22 11:46:49;;;;;;;5.87;1.70;;;22.30;44.80;;;;;;5031531;28;20042;-75
2022/05/22 11:49:24;;;;;;;5.53;1.65;;;22.40;46.90;;;;;;5031732;28;20409;-73
2022/05/22 11:52:05;;;;;;;3.92;1.60;;;22.40;44.70;;;;;;5031527;28;20041;-73
2022/05/22 11:55:02;;;;;;;6.15;1.65;;;22.50;45.50;;;;;;5031261;28;20097;-72
2022/05/22 11:57:27;;;;;;;5.35;1.83;;;22.60;46.10;;;;;;5031458;28;20486;-77
2022/05/22 12:00:14;;;;;;;4.47;1.50;;;22.40;45.30;;;;;;5014925;28;20164;-76
2022/05/22 12:03:08;;;;;;;5.90;2.30;;;22.60;46.30;;;;;;5014939;28;20073;-76
2022/05/22 12:05:43;;;;;;;;;;;22.70;46.70;;;;;;5015277;28;20091;-74
2022/05/22 12:08:30;;;;;;;7.25;1.70;;;22.80;45.40;;;;;;5032408;28;19917;-77
2022/05/22 12:11:14;;;;;;;5.95;1.85;;;22.70;44.20;;;;;;5035361;28;20136;-76
2022/05/22 12:13:52;;;;;;;6.82;2.63;;;22.50;45.50;;;;;;5035016;28;20052;-73
2022/05/22 12:16:31;;;;;;;5.38;1.58;;;22.00;46.10;;;;;;5035328;28;20064;-77
2022/05/22 12:19:13;;;;;;;5.28;1.92;;;22.10;46.40;;;;;;5034946;28;20051;-74
2022/05/22 12:21:39;;;;;;;4.43;2.00;;;22.10;46.50;;;;;;5035241;28;20116;-78
2022/05/22 12:24:23;;;;;;;6.47;1.98;;;21.80;46.10;;;;;;5034821;28;20044;-76
2022/05/22 12:26:50;;;;;;;5.45;1.95;;;21.40;46.60;;;;;;5034993;28;20049;-73
2022/05/22 12:29:33;;;;;;;6.13;2.20;;;21.40;47.10;;;;;;5035054;28;20048;-75
2022/05/22 12:32:10;;;;;;;4.30;1.80;;;21.50;47.00;;;;;;5034843;28;20038;-74
2022/05/22 12:34:44;;;;;;;5.35;1.85;;;21.60;47.90;;;;;;5034749;28;20049;-74
2022/05/22 12:37:15;;;;;;;5.15;1.80;;;21.60;48.20;;;;;;5035033;28;20374;-75
2022/05/22 12:39:51;;;;;;;4.90;2.40;;;21.80;48.40;;;;;;5034600;28;20055;-76
2022/05/22 12:42:24;;;;;;;6.10;2.33;;;22.00;49.10;;;;;;5034583;28;20053;-74
2022/05/22 12:44:51;;;;;;;10.27;2.83;;;22.10;48.50;;;;;;5034629;28;20038;-77
2022/05/22 12:47:17;;;;;;;6.68;2.00;;;21.90;47.70;;;;;;5034710;28;20056;-74
2022/05/22 12:49:58;;;;;;;5.15;2.50;;;21.80;48.40;;;;;;5034378;28;20481;-74
2022/05/22 12:52:24;;;;;;;5.25;2.00;;;21.60;48.20;;;;;;5034663;28;20049;-73
2022/05/22 12:55:02;;;;;;;6.95;2.55;;;21.40;49.30;;;;;;5034187;28;20437;-74
2022/05/22 12:57:28;;;;;;;8.80;2.40;;;21.30;49.50;;;;;;5034282;28;20037;-73
2022/05/22 13:00:14;;;;;;;5.10;1.73;;;21.00;49.40;;;;;;5034212;28;20103;-71
2022/05/22 13:02:42;;;;;;;4.28;1.85;;;21.20;49.60;;;;;;5034453;28;20147;-73
2022/05/22 13:05:33;;;;;;;4.60;2.30;;;21.40;49.20;;;;;;5034410;28;20041;-75
2022/05/22 13:07:59;;;;;;;7.30;2.03;;;21.40;48.00;;;;;;5034074;28;20037;-77
2022/05/22 13:10:47;;;;;;;4.50;2.10;;;21.30;48.20;;;;;;5033967;28;20037;-73